PWSweather.com
Personal Weather Stations
Station Observations
KAZSIERR7
Canyon De Flores, Sierra Vista, AZ 85650

Canyon De FloresSierra Vista, AZ 85650

Lat: 31.5, Lon: -110.26

Elevation: 4645

Station Type: LaCrosse WS-3610 & Boltek Lightning Detector

http://www.lightningring.com/weather/

High Low Average
Temperature 77.4°F25.2°C 76.8°F24.9°C 77.1°F25.1°C
Dew Point 59.7°F15.4°C 56.3°F13.5°C 58.5°F14.7°C
Winds 3.0 mph 4.8 kmh Calm Calm 1.0 mph ESE1.6 kmh ESE
Wind Gusts 16.3 mph26.2 kmh -- 3.0 mph4.8 kmh
Humidity 54% 49% 52%
Pressure 30.07 in1018.3 mb 30.07 in1018.3 mb -
Precipitation 0.00 in0.0 mm - -
Hour Temp Dew Point Humidity Winds Wind Gusts Pressure Precip Precip Rate Daily Precip Total
04:04 PM 76.9°F24.9°C 56.3°F13.5°C 49% 2.9 mph ESE4.7 kmh ESE 2.9 mph4.7 kmh 30.07 in1018.3 mb 0.00 in0.0 mm 0.00 in0.0 mm 0.00 in0.0 mm
04:10 PM 76.8°F24.9°C 57.4°F14.1°C 51% 3.0 mph SE4.8 kmh SE 16.3 mph26.2 kmh 30.07 in1018.3 mb 0.00 in0.0 mm 0.00 in0.0 mm 0.00 in0.0 mm
04:18 PM 77.0°F25.0°C 57.6°F14.2°C 51% Calm Calm 8.5 mph13.7 kmh 30.07 in1018.3 mb 0.00 in0.0 mm 0.00 in0.0 mm 0.00 in0.0 mm
04:24 PM 77.2°F25.1°C 58.3°F14.6°C 52% Calm Calm -- 30.07 in1018.3 mb 0.00 in0.0 mm 0.00 in0.0 mm 0.00 in0.0 mm
04:29 PM 77.3°F25.2°C 59.0°F15.0°C 53% Calm Calm -- 30.07 in1018.3 mb 0.00 in0.0 mm 0.00 in0.0 mm 0.00 in0.0 mm
04:34 PM 77.4°F25.2°C 59.7°F15.4°C 54% Calm Calm -- 30.07 in1018.3 mb 0.00 in0.0 mm 0.00 in0.0 mm 0.00 in0.0 mm
04:40 PM 77.2°F25.1°C 59.4°F15.2°C 54% Calm Calm -- 30.07 in1018.3 mb 0.00 in0.0 mm 0.00 in0.0 mm 0.00 in0.0 mm
04:45 PM 77.1°F25.1°C 58.8°F14.9°C 53% Calm Calm -- 30.07 in1018.3 mb 0.00 in0.0 mm 0.00 in0.0 mm 0.00 in0.0 mm
04:50 PM 77.3°F25.2°C 58.9°F14.9°C 53% Calm Calm -- 30.07 in1018.3 mb 0.00 in0.0 mm 0.00 in0.0 mm 0.00 in0.0 mm
04:56 PM 77.3°F25.2°C 59.5°F15.3°C 54% Calm Calm -- 30.07 in1018.3 mb 0.00 in0.0 mm 0.00 in0.0 mm 0.00 in0.0 mm
05:01 PM 77.5°F25.3°C 59.9°F15.5°C 55% Calm Calm -- 30.06 in1017.9 mb 0.00 in0.0 mm 0.00 in0.0 mm 0.00 in0.0 mm
05:06 PM 77.4°F25.2°C 59.4°F15.2°C 54% Calm Calm -- 30.06 in1017.9 mb 0.00 in0.0 mm 0.00 in0.0 mm 0.00 in0.0 mm
05:11 PM 77.5°F25.3°C 59.5°F15.3°C 55% Calm Calm -- 30.06 in1017.9 mb 0.00 in0.0 mm 0.00 in0.0 mm 0.00 in0.0 mm
05:16 PM 77.4°F25.2°C 59.4°F15.2°C 54% Calm Calm -- 30.07 in1018.3 mb 0.00 in0.0 mm 0.00 in0.0 mm 0.00 in0.0 mm
05:22 PM 77.4°F25.2°C 59.4°F15.2°C 55% Calm Calm -- 30.07 in1018.3 mb 0.00 in0.0 mm 0.00 in0.0 mm 0.00 in0.0 mm
05:27 PM 77.0°F25.0°C 59.5°F15.3°C 55% Calm Calm -- 30.07 in1018.3 mb 0.00 in0.0 mm 0.00 in0.0 mm 0.00 in0.0 mm
05:32 PM 76.8°F24.9°C 59.7°F15.4°C 56% Calm Calm -- 30.07 in1018.3 mb 0.00 in0.0 mm 0.00 in0.0 mm 0.00 in0.0 mm
05:37 PM 76.8°F24.9°C 59.7°F15.4°C 56% Calm Calm -- 30.06 in1017.9 mb 0.00 in0.0 mm 0.00 in0.0 mm 0.00 in0.0 mm
05:43 PM 76.6°F24.8°C 59.7°F15.4°C 56% Calm Calm -- 30.07 in1018.3 mb 0.00 in0.0 mm 0.00 in0.0 mm 0.00 in0.0 mm
05:48 PM 76.6°F24.8°C 59.7°F15.4°C 57% Calm Calm -- 30.07 in1018.3 mb 0.00 in0.0 mm 0.00 in0.0 mm 0.00 in0.0 mm
05:53 PM 75.7°F24.3°C 60.8°F16.0°C 60% 4.6 mph ENE7.4 kmh ENE 4.6 mph7.4 kmh 30.08 in1018.6 mb 0.00 in0.0 mm 0.00 in0.0 mm 0.00 in0.0 mm
05:58 PM 74.1°F23.4°C 61.5°F16.4°C 65% Calm Calm 4.6 mph7.4 kmh 30.08 in1018.6 mb 0.00 in0.0 mm 0.00 in0.0 mm 0.00 in0.0 mm
06:04 PM 72.7°F22.6°C 59.7°F15.4°C 65% 1.0 mph ENE1.6 kmh ENE 16.1 mph25.9 kmh 30.08 in1018.6 mb 0.00 in0.0 mm 0.00 in0.0 mm 0.00 in0.0 mm
06:09 PM 72.3°F22.4°C 60.3°F15.7°C 66% Calm Calm 16.1 mph25.9 kmh 30.08 in1018.6 mb 0.00 in0.0 mm 0.00 in0.0 mm 0.00 in0.0 mm
06:14 PM 72.0°F22.2°C 61.7°F16.5°C 70% Calm Calm -- 30.09 in1019.0 mb 0.00 in0.0 mm 0.00 in0.0 mm 0.00 in0.0 mm
06:19 PM 71.2°F21.8°C 61.7°F16.5°C 72% 2.0 mph ENE3.2 kmh ENE 2.0 mph3.2 kmh 30.09 in1019.0 mb 0.00 in0.0 mm 0.00 in0.0 mm 0.00 in0.0 mm
06:25 PM 70.7°F21.5°C 61.5°F16.4°C 73% Calm Calm 2.0 mph3.2 kmh 30.09 in1019.0 mb 0.00 in0.0 mm 0.00 in0.0 mm 0.00 in0.0 mm
06:30 PM 70.2°F21.2°C 61.3°F16.3°C 74% Calm Calm -- 30.10 in1019.3 mb 0.00 in0.0 mm 0.00 in0.0 mm 0.00 in0.0 mm
06:35 PM 69.1°F20.6°C 61.5°F16.4°C 77% Calm Calm -- 30.10 in1019.3 mb 0.00 in0.0 mm 0.00 in0.0 mm 0.00 in0.0 mm
06:40 PM 68.7°F20.4°C 61.9°F16.6°C 79% Calm Calm -- 30.11 in1019.6 mb 0.00 in0.0 mm 0.00 in0.0 mm 0.00 in0.0 mm
06:46 PM 68.4°F20.2°C 61.5°F16.4°C 79% Calm Calm -- 30.11 in1019.6 mb 0.00 in0.0 mm 0.00 in0.0 mm 0.00 in0.0 mm
06:51 PM 68.2°F20.1°C 61.3°F16.3°C 80% Calm Calm -- 30.11 in1019.6 mb 0.00 in0.0 mm 0.00 in0.0 mm 0.00 in0.0 mm
06:56 PM 68.0°F20.0°C 61.7°F16.5°C 80% Calm Calm -- 30.11 in1019.6 mb 0.00 in0.0 mm 0.00 in0.0 mm 0.00 in0.0 mm
07:02 PM 67.8°F19.9°C 62.1°F16.7°C 82% Calm Calm -- 30.12 in1020.0 mb 0.00 in0.0 mm 0.00 in0.0 mm 0.00 in0.0 mm
07:07 PM 67.6°F19.8°C 62.2°F16.8°C 83% Calm Calm -- 30.11 in1019.6 mb 0.00 in0.0 mm 0.00 in0.0 mm 0.00 in0.0 mm
07:13 PM 67.5°F19.7°C 62.8°F17.1°C 85% Calm Calm -- 30.12 in1020.0 mb 0.00 in0.0 mm 0.00 in0.0 mm 0.00 in0.0 mm
07:18 PM 67.3°F19.6°C 62.6°F17.0°C 85% Calm Calm -- 30.12 in1020.0 mb 0.00 in0.0 mm 0.00 in0.0 mm 0.00 in0.0 mm
07:24 PM 67.1°F19.5°C 62.4°F16.9°C 86% Calm Calm -- 30.12 in1020.0 mb 0.00 in0.0 mm 0.00 in0.0 mm 0.00 in0.0 mm
07:29 PM 66.9°F19.4°C 62.4°F16.9°C 86% Calm Calm -- 30.13 in1020.3 mb 0.00 in0.0 mm 0.00 in0.0 mm 0.00 in0.0 mm
07:34 PM 66.7°F19.3°C 62.6°F17.0°C 87% Calm Calm -- 30.13 in1020.3 mb 0.02 in0.5 mm 0.24 in6.1 mm 0.02 in0.5 mm
07:39 PM 66.4°F19.1°C 62.2°F16.8°C 87% Calm Calm -- 30.13 in1020.3 mb 0.06 in1.5 mm 0.48 in12.2 mm 0.06 in1.5 mm
07:45 PM 66.4°F19.1°C 62.2°F16.8°C 88% Calm Calm -- 30.13 in1020.3 mb 0.06 in1.5 mm 0.00 in0.0 mm 0.06 in1.5 mm
07:50 PM 66.4°F19.1°C 62.2°F16.8°C 88% Calm Calm -- 30.13 in1020.3 mb 0.06 in1.5 mm 0.00 in0.0 mm 0.06 in1.5 mm
07:55 PM 66.4°F19.1°C 62.2°F16.8°C 89% Calm Calm -- 30.13 in1020.3 mb 0.06 in1.5 mm 0.00 in0.0 mm 0.06 in1.5 mm
08:00 PM 66.4°F19.1°C 62.2°F16.8°C 89% Calm Calm -- 30.13 in1020.3 mb 0.06 in1.5 mm 0.00 in0.0 mm 0.06 in1.5 mm
08:06 PM 66.0°F18.9°C 62.6°F17.0°C 89% Calm Calm -- 30.13 in1020.3 mb 0.06 in1.5 mm 0.00 in0.0 mm 0.06 in1.5 mm
08:11 PM 66.0°F18.9°C 62.6°F17.0°C 89% Calm Calm -- 30.13 in1020.3 mb 0.06 in1.5 mm 0.00 in0.0 mm 0.06 in1.5 mm
08:16 PM 65.8°F18.8°C 62.8°F17.1°C 90% Calm Calm -- 30.13 in1020.3 mb 0.06 in1.5 mm 0.00 in0.0 mm 0.06 in1.5 mm
08:21 PM 65.7°F18.7°C 62.6°F17.0°C 90% Calm Calm -- 30.13 in1020.3 mb 0.06 in1.5 mm 0.00 in0.0 mm 0.06 in1.5 mm
08:27 PM 65.5°F18.6°C 62.4°F16.9°C 90% Calm Calm -- 30.13 in1020.3 mb 0.06 in1.5 mm 0.00 in0.0 mm 0.06 in1.5 mm
08:32 PM 65.5°F18.6°C 62.4°F16.9°C 90% Calm Calm -- 30.13 in1020.3 mb 0.06 in1.5 mm 0.00 in0.0 mm 0.06 in1.5 mm
08:37 PM 65.5°F18.6°C 62.4°F16.9°C 90% Calm Calm -- 30.13 in1020.3 mb 0.06 in1.5 mm 0.00 in0.0 mm 0.06 in1.5 mm
08:42 PM 65.5°F18.6°C 62.4°F16.9°C 90% Calm Calm -- 30.13 in1020.3 mb 0.02 in0.5 mm 0.00 in0.0 mm 0.08 in2.0 mm
08:48 PM 65.5°F18.6°C 62.4°F16.9°C 90% Calm Calm -- 30.13 in1020.3 mb 0.02 in0.5 mm 0.00 in0.0 mm 0.08 in2.0 mm
08:53 PM 65.8°F18.8°C 62.8°F17.1°C 90% Calm Calm -- 30.13 in1020.3 mb 0.02 in0.5 mm 0.00 in0.0 mm 0.08 in2.0 mm
08:58 PM 65.8°F18.8°C 62.8°F17.1°C 90% Calm Calm -- 30.13 in1020.3 mb 0.02 in0.5 mm 0.00 in0.0 mm 0.08 in2.0 mm
09:03 PM 65.8°F18.8°C 62.8°F17.1°C 90% Calm Calm -- 30.14 in1020.7 mb 0.02 in0.5 mm 0.00 in0.0 mm 0.08 in2.0 mm
09:09 PM 65.8°F18.8°C 62.8°F17.1°C 90% Calm Calm -- 30.14 in1020.7 mb 0.02 in0.5 mm 0.00 in0.0 mm 0.08 in2.0 mm
09:14 PM 65.8°F18.8°C 62.8°F17.1°C 90% Calm Calm -- 30.14 in1020.7 mb 0.02 in0.5 mm 0.00 in0.0 mm 0.08 in2.0 mm
09:19 PM 65.8°F18.8°C 62.8°F17.1°C 90% Calm Calm -- 30.14 in1020.7 mb 0.02 in0.5 mm 0.00 in0.0 mm 0.08 in2.0 mm
09:24 PM 65.8°F18.8°C 62.8°F17.1°C 90% Calm Calm -- 30.14 in1020.7 mb 0.02 in0.5 mm 0.00 in0.0 mm 0.08 in2.0 mm
09:30 PM 65.7°F18.7°C 62.6°F17.0°C 90% Calm Calm -- 30.14 in1020.7 mb 0.02 in0.5 mm 0.00 in0.0 mm 0.08 in2.0 mm
09:35 PM 65.5°F18.6°C 62.4°F16.9°C 90% Calm Calm -- 30.14 in1020.7 mb 0.02 in0.5 mm 0.00 in0.0 mm 0.08 in2.0 mm
09:40 PM 65.5°F18.6°C 62.4°F16.9°C 90% Calm Calm -- 30.14 in1020.7 mb 0.02 in0.5 mm 0.00 in0.0 mm 0.08 in2.0 mm
09:45 PM 65.5°F18.6°C 62.4°F16.9°C 90% Calm Calm -- 30.14 in1020.7 mb 0.02 in0.5 mm 0.00 in0.0 mm 0.08 in2.0 mm
09:51 PM 65.5°F18.6°C 62.4°F16.9°C 90% Calm Calm -- 30.14 in1020.7 mb 0.02 in0.5 mm 0.00 in0.0 mm 0.08 in2.0 mm
09:56 PM 65.5°F18.6°C 62.4°F16.9°C 91% Calm Calm -- 30.14 in1020.7 mb 0.02 in0.5 mm 0.00 in0.0 mm 0.08 in2.0 mm
10:01 PM 65.5°F18.6°C 62.4°F16.9°C 91% Calm Calm -- 30.14 in1020.7 mb 0.00 in0.0 mm 0.00 in0.0 mm 0.08 in2.0 mm
10:06 PM 65.5°F18.6°C 62.4°F16.9°C 91% Calm Calm -- 30.14 in1020.7 mb 0.00 in0.0 mm 0.00 in0.0 mm 0.08 in2.0 mm
10:12 PM 65.3°F18.5°C 62.6°F17.0°C 91% Calm Calm -- 30.14 in1020.7 mb 0.00 in0.0 mm 0.00 in0.0 mm 0.08 in2.0 mm
10:17 PM 65.5°F18.6°C 62.8°F17.1°C 91% Calm Calm -- 30.14 in1020.7 mb 0.00 in0.0 mm 0.00 in0.0 mm 0.08 in2.0 mm
10:22 PM 65.5°F18.6°C 62.8°F17.1°C 90% Calm Calm -- 30.13 in1020.3 mb 0.00 in0.0 mm 0.00 in0.0 mm 0.08 in2.0 mm
10:27 PM 65.5°F18.6°C 62.8°F17.1°C 90% Calm Calm -- 30.13 in1020.3 mb 0.00 in0.0 mm 0.00 in0.0 mm 0.08 in2.0 mm
10:33 PM 65.7°F18.7°C 62.2°F16.8°C 89% Calm Calm -- 30.12 in1020.0 mb 0.00 in0.0 mm 0.00 in0.0 mm 0.08 in2.0 mm
10:38 PM 65.8°F18.8°C 62.4°F16.9°C 89% Calm Calm -- 30.12 in1020.0 mb 0.00 in0.0 mm 0.00 in0.0 mm 0.08 in2.0 mm
10:43 PM 65.8°F18.8°C 62.4°F16.9°C 89% Calm Calm -- 30.12 in1020.0 mb 0.00 in0.0 mm 0.00 in0.0 mm 0.08 in2.0 mm
10:48 PM 65.8°F18.8°C 62.4°F16.9°C 89% Calm Calm -- 30.12 in1020.0 mb 0.00 in0.0 mm 0.00 in0.0 mm 0.08 in2.0 mm
10:54 PM 65.8°F18.8°C 62.4°F16.9°C 89% Calm Calm -- 30.12 in1020.0 mb 0.00 in0.0 mm 0.00 in0.0 mm 0.08 in2.0 mm
10:59 PM 65.8°F18.8°C 62.4°F16.9°C 89% Calm Calm -- 30.12 in1020.0 mb 0.00 in0.0 mm 0.00 in0.0 mm 0.08 in2.0 mm
11:04 PM 65.7°F18.7°C 62.2°F16.8°C 89% 4.4 mph S7.1 kmh S 4.4 mph7.1 kmh 30.12 in1020.0 mb 0.00 in0.0 mm 0.00 in0.0 mm 0.08 in2.0 mm
11:09 PM 65.8°F18.8°C 62.4°F16.9°C 89% 3.8 mph ESE6.1 kmh ESE 4.4 mph7.1 kmh 30.12 in1020.0 mb 0.00 in0.0 mm 0.00 in0.0 mm 0.08 in2.0 mm
11:15 PM 65.8°F18.8°C 62.4°F16.9°C 89% Calm Calm 3.8 mph6.1 kmh 30.13 in1020.3 mb 0.00 in0.0 mm 0.00 in0.0 mm 0.08 in2.0 mm
11:20 PM 65.8°F18.8°C 62.4°F16.9°C 89% Calm Calm 3.8 mph6.1 kmh 30.14 in1020.7 mb 0.00 in0.0 mm 0.00 in0.0 mm 0.08 in2.0 mm
11:25 PM 65.8°F18.8°C 62.4°F16.9°C 90% Calm Calm -- 30.14 in1020.7 mb 0.00 in0.0 mm 0.00 in0.0 mm 0.08 in2.0 mm
11:30 PM 65.7°F18.7°C 62.6°F17.0°C 90% 1.1 mph SE1.8 kmh SE 1.1 mph1.8 kmh 30.14 in1020.7 mb 0.00 in0.0 mm 0.00 in0.0 mm 0.08 in2.0 mm
11:35 PM 65.7°F18.7°C 62.6°F17.0°C 90% Calm Calm 1.1 mph1.8 kmh 30.14 in1020.7 mb 0.00 in0.0 mm 0.00 in0.0 mm 0.08 in2.0 mm
11:41 PM 65.8°F18.8°C 62.8°F17.1°C 90% Calm Calm -- 30.13 in1020.3 mb 0.00 in0.0 mm 0.00 in0.0 mm 0.08 in2.0 mm
11:46 PM 65.8°F18.8°C 62.8°F17.1°C 90% Calm Calm -- 30.13 in1020.3 mb 0.00 in0.0 mm 0.00 in0.0 mm 0.08 in2.0 mm
11:51 PM 65.8°F18.8°C 62.4°F16.9°C 89% 4.9 mph SE7.9 kmh SE 4.9 mph7.9 kmh 30.12 in1020.0 mb 0.00 in0.0 mm 0.00 in0.0 mm 0.08 in2.0 mm
11:56 PM 66.0°F18.9°C 61.9°F16.6°C 87% 2.6 mph SE4.2 kmh SE 4.9 mph7.9 kmh 30.12 in1020.0 mb 0.00 in0.0 mm 0.00 in0.0 mm 0.08 in2.0 mm